createdAt,value
2022-07-29T00:00:02.530Z,95220.34
2022-07-29T00:03:07.397Z,95220.13
2022-07-29T00:06:10.545Z,95224.28
2022-07-29T00:09:13.750Z,95219.13
2022-07-29T00:12:16.962Z,95222.81
2022-07-29T00:15:28.465Z,95229.84
2022-07-29T00:18:33.254Z,95236.03
2022-07-29T00:21:36.419Z,95238.94
2022-07-29T00:24:39.495Z,95246.88
2022-07-29T00:27:42.611Z,95245.50
2022-07-29T00:30:45.688Z,95239.91
2022-07-29T00:33:50.123Z,95236.75
2022-07-29T00:36:52.170Z,95232.56
2022-07-29T00:39:55.249Z,95223.59
2022-07-29T00:42:58.343Z,95225.59
2022-07-29T00:46:02.776Z,95231.44
2022-07-29T00:49:08.516Z,95232.09
2022-07-29T00:52:12.690Z,95232.44
2022-07-29T00:55:20.086Z,95228.88
2022-07-29T00:58:23.537Z,95238.38
2022-07-29T01:01:26.701Z,95242.31
2022-07-29T01:04:31.939Z,95238.84
2022-07-29T01:07:37.116Z,95234.28
2022-07-29T01:10:42.095Z,95221.47
2022-07-29T01:13:45.924Z,95220.66
2022-07-29T01:16:55.483Z,95219.97
2022-07-29T01:20:06.066Z,95222.06
2022-07-29T01:23:47.601Z,95224.09
2022-07-29T01:26:54.595Z,95219.88
2022-07-29T01:30:01.989Z,95221.69
2022-07-29T01:33:39.085Z,95230.97
2022-07-29T01:36:52.916Z,95230.44
2022-07-29T01:39:59.475Z,95220.91
2022-07-29T01:43:10.097Z,95216.44
2022-07-29T01:46:20.536Z,95213.97
2022-07-29T01:49:29.392Z,95209.16
2022-07-29T01:52:38.713Z,95210.63
2022-07-29T01:55:46.930Z,95203.78
2022-07-29T01:58:51.733Z,95205.66
2022-07-29T02:02:00.630Z,95199.06
2022-07-29T02:05:06.117Z,95200.38
2022-07-29T02:08:12.026Z,95203.94
2022-07-29T02:11:15.431Z,95198.56
2022-07-29T02:14:21.023Z,95201.50
2022-07-29T02:17:29.485Z,95186.50
2022-07-29T02:20:33.911Z,95186.84
2022-07-29T02:23:45.250Z,95184.72
2022-07-29T02:26:57.550Z,95187.75
2022-07-29T02:30:02.929Z,95189.88
2022-07-29T02:33:09.157Z,95190.13
2022-07-29T02:36:13.203Z,95196.63
2022-07-29T02:39:17.732Z,95197.94
2022-07-29T02:42:21.807Z,95192.81
2022-07-29T02:45:25.007Z,95183.59
2022-07-29T02:48:37.007Z,95186.53
2022-07-29T02:51:45.359Z,95170.63
2022-07-29T02:54:54.206Z,95173.75
2022-07-29T02:58:03.071Z,95178.00
2022-07-29T03:01:20.999Z,95175.88
2022-07-29T03:04:29.552Z,95179.69
2022-07-29T03:07:34.031Z,95187.19
2022-07-29T03:10:38.944Z,95179.47
2022-07-29T03:13:42.432Z,95178.13
2022-07-29T03:16:45.766Z,95174.03
2022-07-29T03:19:50.716Z,95168.06
2022-07-29T03:22:53.843Z,95180.34
2022-07-29T03:25:57.389Z,95181.88
2022-07-29T03:29:00.453Z,95185.94
2022-07-29T03:32:07.883Z,95180.28
2022-07-29T03:35:13.020Z,95180.13
2022-07-29T03:38:16.076Z,95180.34
2022-07-29T03:41:22.406Z,95183.44
2022-07-29T03:44:28.023Z,95181.88
2022-07-29T03:47:50.175Z,95187.69
2022-07-29T03:50:56.258Z,95194.53
2022-07-29T03:53:59.429Z,95197.31
2022-07-29T03:57:04.113Z,95204.69
2022-07-29T04:00:08.924Z,95197.34
2022-07-29T04:03:12.573Z,95200.25
2022-07-29T04:06:20.445Z,95199.59
2022-07-29T04:09:23.602Z,95194.78
2022-07-29T04:12:26.745Z,95199.91
2022-07-29T04:15:31.238Z,95203.34
2022-07-29T04:18:34.941Z,95192.22
2022-07-29T04:21:40.989Z,95200.38
2022-07-29T04:24:44.606Z,95193.38
2022-07-29T04:31:16.498Z,95194.84
2022-07-29T04:34:20.221Z,95198.31
2022-07-29T04:37:23.502Z,95195.50
2022-07-29T04:40:26.796Z,95198.19
2022-07-29T04:43:30.039Z,95207.16
2022-07-29T04:46:41.550Z,95210.53
2022-07-29T04:49:45.038Z,95214.69
2022-07-29T04:52:48.189Z,95207.47
2022-07-29T04:55:51.319Z,95216.47
2022-07-29T04:58:54.761Z,95209.53
2022-07-29T05:01:59.310Z,95214.28
2022-07-29T05:05:02.439Z,95225.16
2022-07-29T05:08:05.924Z,95214.28
2022-07-29T05:11:11.686Z,95216.75
2022-07-29T05:14:16.326Z,95222.81
2022-07-29T05:17:21.131Z,95224.00
2022-07-29T05:20:29.203Z,95222.59
2022-07-29T05:23:32.289Z,95223.22
2022-07-29T05:26:35.316Z,95222.03
2022-07-29T05:29:44.438Z,95227.13
2022-07-29T05:32:50.415Z,95222.38
2022-07-29T05:35:57.270Z,95230.31
2022-07-29T05:39:03.637Z,95226.41
2022-07-29T05:42:10.666Z,95234.13
2022-07-29T05:45:13.848Z,95225.75
2022-07-29T05:48:18.315Z,95229.06
2022-07-29T05:51:21.617Z,95230.66
2022-07-29T05:54:24.685Z,95234.88
2022-07-29T05:57:27.782Z,95236.16
2022-07-29T06:00:31.232Z,95234.69
2022-07-29T06:03:35.729Z,95228.13
2022-07-29T06:06:38.772Z,95234.28
2022-07-29T06:09:41.933Z,95230.56
2022-07-29T06:12:45.009Z,95239.31
2022-07-29T06:15:48.075Z,95234.13
2022-07-29T06:18:53.205Z,95238.53
2022-07-29T06:21:56.367Z,95240.06
2022-07-29T06:24:59.377Z,95233.56
2022-07-29T06:28:02.786Z,95234.81
2022-07-29T06:31:05.959Z,95233.00
2022-07-29T06:34:13.813Z,95236.38
2022-07-29T06:37:18.675Z,95236.84
2022-07-29T06:40:40.016Z,95230.06
2022-07-29T06:43:52.524Z,95224.84
2022-07-29T06:46:57.857Z,95227.22
2022-07-29T06:50:02.341Z,95231.50
2022-07-29T06:53:10.778Z,95228.13
2022-07-29T06:56:14.997Z,95223.03
2022-07-29T06:59:18.050Z,95222.81
2022-07-29T07:02:21.299Z,95223.38
2022-07-29T07:05:25.806Z,95217.75
2022-07-29T07:08:29.070Z,95224.16
2022-07-29T07:11:32.244Z,95213.97
2022-07-29T07:14:35.327Z,95216.44
2022-07-29T07:17:38.745Z,95224.59
2022-07-29T07:20:43.382Z,95220.59
2022-07-29T07:23:46.480Z,95220.47
2022-07-29T07:26:49.824Z,95215.75
2022-07-29T07:29:52.896Z,95224.31
2022-07-29T07:32:56.370Z,95223.31
2022-07-29T07:36:00.917Z,95214.91
2022-07-29T07:39:04.688Z,95214.25
2022-07-29T07:42:07.959Z,95209.31
2022-07-29T07:45:13.914Z,95201.41
2022-07-29T07:48:19.710Z,95203.00
2022-07-29T07:51:24.168Z,95206.47
2022-07-29T07:54:27.345Z,95202.84
2022-07-29T07:57:30.433Z,95210.34
2022-07-29T08:00:33.735Z,95204.69
2022-07-29T08:03:37.111Z,95203.84
2022-07-29T08:06:41.579Z,95201.06
2022-07-29T08:09:44.586Z,95203.06
2022-07-29T08:12:47.683Z,95202.50
2022-07-29T08:15:58.728Z,95204.09
2022-07-29T08:19:02.171Z,95195.13
2022-07-29T08:22:14.135Z,95195.22
2022-07-29T08:25:18.979Z,95187.16
2022-07-29T08:28:25.748Z,95189.19
2022-07-29T08:31:29.193Z,95190.75
2022-07-29T08:34:33.016Z,95182.13
2022-07-29T08:37:37.519Z,95181.44
2022-07-29T08:40:41.474Z,95189.56
2022-07-29T08:43:44.590Z,95183.66
2022-07-29T08:46:48.159Z,95184.03
2022-07-29T08:49:51.295Z,95186.66
2022-07-29T08:52:59.747Z,95186.13
2022-07-29T08:56:04.195Z,95185.03
2022-07-29T08:59:08.031Z,95176.81
2022-07-29T09:02:22.930Z,95175.75
2022-07-29T09:05:26.544Z,95172.34
2022-07-29T09:08:32.786Z,95168.38
2022-07-29T09:11:36.406Z,95177.72
2022-07-29T09:14:39.696Z,95164.06
2022-07-29T09:17:43.812Z,95167.28
2022-07-29T09:21:11.802Z,95169.28
2022-07-29T09:24:16.932Z,95173.34
2022-07-29T09:27:26.972Z,95167.97
2022-07-29T09:30:31.842Z,95170.00
2022-07-29T09:33:40.401Z,95166.19
2022-07-29T09:36:44.602Z,95164.94
2022-07-29T09:39:49.215Z,95157.97
2022-07-29T09:42:53.921Z,95170.03
2022-07-29T09:45:57.227Z,95162.22
2022-07-29T09:49:11.196Z,95158.91
2022-07-29T09:52:14.359Z,95153.50
2022-07-29T09:55:20.158Z,95154.28
2022-07-29T09:58:24.405Z,95158.19
2022-07-29T10:01:30.405Z,95150.38
2022-07-29T10:04:41.437Z,95142.38
2022-07-29T10:07:53.678Z,95139.34
2022-07-29T10:11:12.362Z,95126.41
2022-07-29T10:14:16.626Z,95120.59
2022-07-29T10:17:20.791Z,95125.75
2022-07-29T10:20:24.820Z,95128.72
2022-07-29T10:23:28.614Z,95127.44
2022-07-29T10:26:33.442Z,95117.28
2022-07-29T10:29:37.217Z,95114.06
2022-07-29T10:33:01.218Z,95107.25
2022-07-29T10:36:24.499Z,95110.72
2022-07-29T10:39:45.190Z,95100.44
2022-07-29T10:42:55.968Z,95104.34
2022-07-29T10:46:02.827Z,95106.00
2022-07-29T10:49:15.748Z,95096.53
2022-07-29T10:52:20.600Z,95091.19
2022-07-29T10:55:35.727Z,95091.03
2022-07-29T10:58:41.027Z,95078.59
2022-07-29T11:01:46.416Z,95086.56
2022-07-29T11:05:04.357Z,95081.09
2022-07-29T11:08:28.058Z,95082.56
2022-07-29T11:11:36.741Z,95090.81
2022-07-29T11:15:00.314Z,95077.63
2022-07-29T11:18:14.942Z,95068.50
2022-07-29T11:21:55.162Z,95067.38
2022-07-29T11:25:16.759Z,95071.44
2022-07-29T11:28:25.489Z,95067.53
2022-07-29T11:31:39.784Z,95054.81
2022-07-29T11:34:43.171Z,95058.72
2022-07-29T11:37:52.495Z,95056.09
2022-07-29T11:41:22.068Z,95048.00
2022-07-29T11:44:57.051Z,95057.31
2022-07-29T11:48:28.864Z,95055.19
2022-07-29T11:54:57.319Z,95050.59
2022-07-29T11:58:04.139Z,95048.81
2022-07-29T12:01:28.167Z,95044.34
2022-07-29T12:04:32.772Z,95045.47
2022-07-29T12:07:36.535Z,95039.56
2022-07-29T12:10:40.009Z,95040.00
2022-07-29T12:13:43.102Z,95040.31
2022-07-29T12:16:46.435Z,95039.28
2022-07-29T12:19:51.044Z,95046.91
2022-07-29T12:22:55.571Z,95045.25
2022-07-29T12:26:00.720Z,95042.63
2022-07-29T12:29:08.504Z,95036.63
2022-07-29T12:32:19.757Z,95031.66
2022-07-29T12:35:25.569Z,95040.81
2022-07-29T12:38:29.130Z,95030.22
2022-07-29T12:41:32.651Z,95031.22
2022-07-29T12:44:50.179Z,95032.53
2022-07-29T12:47:54.290Z,95028.47
2022-07-29T12:51:00.495Z,95019.97
2022-07-29T12:54:11.442Z,95026.94
2022-07-29T12:57:20.129Z,95020.69
2022-07-29T13:00:26.025Z,95020.59
2022-07-29T13:03:35.943Z,95011.81
2022-07-29T13:06:45.691Z,95009.91
2022-07-29T13:09:49.580Z,95005.63
2022-07-29T13:13:10.644Z,95005.16
2022-07-29T13:16:14.032Z,95004.94
2022-07-29T13:19:17.257Z,95000.84
2022-07-29T13:22:23.538Z,94995.53
2022-07-29T13:25:28.703Z,94999.41
2022-07-29T13:28:31.820Z,94989.91
2022-07-29T13:31:34.993Z,94994.09
2022-07-29T13:34:38.273Z,94985.09
2022-07-29T13:37:42.851Z,94985.72
2022-07-29T13:40:45.978Z,94980.91
2022-07-29T13:43:50.130Z,94979.53
2022-07-29T13:46:53.242Z,94979.03
2022-07-29T13:49:56.374Z,94973.84
2022-07-29T13:53:00.872Z,94977.66
2022-07-29T13:56:04.099Z,94973.59
2022-07-29T13:59:07.212Z,94980.13
2022-07-29T14:02:11.526Z,94970.47
2022-07-29T14:05:14.665Z,94986.91
2022-07-29T14:08:19.207Z,94981.75
2022-07-29T14:11:22.553Z,94990.84
2022-07-29T14:14:25.709Z,94985.16
2022-07-29T14:17:28.831Z,94994.50
2022-07-29T14:20:32.028Z,94992.19
2022-07-29T14:23:36.582Z,94986.06
2022-07-29T14:26:39.679Z,94984.59
2022-07-29T14:29:42.796Z,94982.75
2022-07-29T14:32:45.897Z,94984.44
2022-07-29T14:35:49.449Z,94974.84
2022-07-29T14:38:53.888Z,94965.56
2022-07-29T14:41:57.200Z,94961.03
2022-07-29T14:45:01.427Z,94971.31
2022-07-29T14:48:04.602Z,94968.13
2022-07-29T14:51:07.720Z,94969.47
2022-07-29T14:54:12.277Z,94966.34
2022-07-29T14:57:15.457Z,94981.88
2022-07-29T15:00:19.299Z,94979.91
2022-07-29T15:03:24.203Z,94980.78
2022-07-29T15:06:27.871Z,94979.47
2022-07-29T15:09:32.528Z,94971.13
2022-07-29T15:12:39.436Z,94978.16
2022-07-29T15:15:42.924Z,94972.41
2022-07-29T15:18:46.306Z,94962.09
2022-07-29T15:21:49.390Z,94961.09
2022-07-29T15:24:53.881Z,94961.19
2022-07-29T15:28:01.151Z,94956.34
2022-07-29T15:31:04.888Z,94955.06
2022-07-29T15:34:07.940Z,94956.84
2022-07-29T15:37:11.992Z,94960.25
2022-07-29T15:40:16.701Z,94956.53
2022-07-29T15:43:19.877Z,94962.59
2022-07-29T15:46:40.382Z,94954.50
2022-07-29T15:49:46.606Z,94960.66
2022-07-29T15:52:52.389Z,94962.53
2022-07-29T15:55:56.949Z,94960.81
2022-07-29T15:59:00.328Z,94974.72
2022-07-29T16:02:04.213Z,94968.78
2022-07-29T16:05:09.265Z,94961.56
2022-07-29T16:08:12.738Z,94950.81
2022-07-29T16:11:17.287Z,94960.84
2022-07-29T16:14:21.031Z,94966.09
2022-07-29T16:17:25.590Z,94960.03
2022-07-29T16:20:28.758Z,94965.56
2022-07-29T16:23:32.308Z,94971.44
2022-07-29T16:26:37.361Z,94965.50
2022-07-29T16:29:40.547Z,94968.91
2022-07-29T16:32:43.620Z,94974.09
2022-07-29T16:35:46.778Z,94977.22
2022-07-29T16:38:52.181Z,94981.78
2022-07-29T16:42:00.013Z,94991.03
2022-07-29T16:45:04.554Z,94984.88
2022-07-29T16:48:08.659Z,94990.25
2022-07-29T16:51:14.514Z,94984.94
2022-07-29T16:54:17.836Z,94983.78
2022-07-29T16:57:22.335Z,94979.41
2022-07-29T17:00:25.427Z,94982.09
2022-07-29T17:03:28.516Z,94982.09
2022-07-29T17:06:32.736Z,94976.41
2022-07-29T17:09:35.864Z,94978.94
2022-07-29T17:12:41.712Z,94985.38
2022-07-29T17:15:44.865Z,94987.03
2022-07-29T17:18:48.215Z,94988.66
2022-07-29T17:21:51.431Z,94989.06
2022-07-29T17:24:55.001Z,94996.75
2022-07-29T17:28:01.060Z,94991.41
2022-07-29T17:31:04.528Z,94984.56
2022-07-29T17:34:08.821Z,94995.97
2022-07-29T17:37:13.145Z,95001.44
2022-07-29T17:40:16.234Z,94999.44
2022-07-29T17:43:20.719Z,94997.72
2022-07-29T17:46:27.280Z,95002.53
2022-07-29T17:49:30.503Z,95004.25
2022-07-29T17:52:33.599Z,95007.50
2022-07-29T17:55:36.760Z,95003.72
2022-07-29T17:58:41.276Z,95009.53
2022-07-29T18:01:44.442Z,95014.53
2022-07-29T18:04:50.603Z,95012.09
2022-07-29T18:07:55.826Z,95017.47
2022-07-29T18:10:59.045Z,95021.88
2022-07-29T18:14:03.530Z,95020.59
2022-07-29T18:17:06.722Z,95020.94
2022-07-29T18:20:10.892Z,95029.97
2022-07-29T18:23:14.508Z,95026.84
2022-07-29T18:26:17.884Z,95041.16
2022-07-29T18:29:22.377Z,95042.31
2022-07-29T18:32:28.832Z,95044.56
2022-07-29T18:35:33.283Z,95039.47
2022-07-29T18:38:36.377Z,95039.56
2022-07-29T18:41:49.845Z,95035.38
2022-07-29T18:44:54.885Z,95033.31
2022-07-29T18:47:58.015Z,95038.63
2022-07-29T18:51:01.168Z,95041.13
2022-07-29T18:54:05.482Z,95048.00
2022-07-29T18:57:54.117Z,95052.34
2022-07-29T19:00:33.355Z,95051.56
2022-07-29T19:03:36.611Z,95055.28
2022-07-29T19:06:40.832Z,95056.25
2022-07-29T19:09:49.147Z,95064.84
2022-07-29T19:12:52.867Z,95076.22
2022-07-29T19:15:57.437Z,95065.78
2022-07-29T19:19:01.203Z,95066.00
2022-07-29T19:22:04.288Z,95071.25
2022-07-29T19:25:09.349Z,95074.41
2022-07-29T19:28:12.411Z,95079.25
2022-07-29T19:31:17.010Z,95086.84
2022-07-29T19:34:20.165Z,95093.72
2022-07-29T19:37:23.248Z,95091.94
2022-07-29T19:40:27.183Z,95090.22
2022-07-29T19:43:52.242Z,95091.16
2022-07-29T19:46:54.977Z,95090.31
2022-07-29T19:49:58.127Z,95094.91
2022-07-29T19:53:01.883Z,95098.13
2022-07-29T19:56:05.818Z,95090.84
2022-07-29T19:59:11.992Z,95093.88
2022-07-29T20:02:17.662Z,95083.69
2022-07-29T20:05:20.816Z,95086.53
2022-07-29T20:08:23.913Z,95092.34
2022-07-29T20:11:29.726Z,95087.38
2022-07-29T20:14:32.888Z,95086.72
2022-07-29T20:17:39.772Z,95087.31
2022-07-29T20:20:43.567Z,95085.97
2022-07-29T20:23:47.025Z,95084.16
2022-07-29T20:26:50.975Z,95089.53
2022-07-29T20:29:54.151Z,95079.72
2022-07-29T20:32:58.704Z,95091.53
2022-07-29T20:36:01.900Z,95084.22
2022-07-29T20:39:05.302Z,95099.16
2022-07-29T20:42:08.556Z,95098.16
2022-07-29T20:45:11.949Z,95106.38
2022-07-29T20:48:16.445Z,95096.91
2022-07-29T20:51:19.503Z,95099.16
2022-07-29T20:54:22.541Z,95108.22
2022-07-29T20:57:39.319Z,95106.03
2022-07-29T21:00:42.981Z,95108.38
2022-07-29T21:03:47.785Z,95107.44
2022-07-29T21:06:50.859Z,95107.19
2022-07-29T21:09:54.322Z,95112.13
2022-07-29T21:12:57.502Z,95108.22
2022-07-29T21:16:04.279Z,95097.59
2022-07-29T21:19:10.864Z,95094.81
2022-07-29T21:22:14.055Z,95105.81
2022-07-29T21:25:17.131Z,95105.59
2022-07-29T21:28:35.697Z,95107.88
2022-07-29T21:31:38.765Z,95105.19
2022-07-29T21:34:43.227Z,95103.88
2022-07-29T21:37:46.293Z,95115.59
2022-07-29T21:40:52.279Z,95116.34
2022-07-29T21:43:55.738Z,95113.47
2022-07-29T21:47:01.798Z,95118.72
2022-07-29T21:50:07.422Z,95126.72
2022-07-29T21:53:13.856Z,95113.78
2022-07-29T21:56:18.992Z,95112.28
2022-07-29T21:59:22.139Z,95108.03
2022-07-29T22:02:25.178Z,95104.06
2022-07-29T22:05:30.133Z,95101.69
2022-07-29T22:08:33.211Z,95100.63
2022-07-29T22:11:36.997Z,95108.06
2022-07-29T22:14:40.058Z,95112.56
2022-07-29T22:17:43.184Z,95113.50
2022-07-29T22:20:47.559Z,95115.31
2022-07-29T22:23:50.598Z,95105.56
2022-07-29T22:26:53.618Z,95115.56
2022-07-29T22:29:56.678Z,95111.72
2022-07-29T22:32:59.754Z,95107.00
2022-07-29T22:36:04.229Z,95127.34
2022-07-29T22:39:07.639Z,95117.00
2022-07-29T22:42:10.716Z,95120.53
2022-07-29T22:45:13.810Z,95126.88
2022-07-29T22:48:16.987Z,95111.78
2022-07-29T22:51:21.579Z,95120.28
2022-07-29T22:54:24.678Z,95121.06
2022-07-29T22:57:27.843Z,95118.78
2022-07-29T23:00:31.699Z,95120.41
2022-07-29T23:03:34.872Z,95116.38
2022-07-29T23:06:39.461Z,95114.97
2022-07-29T23:09:42.555Z,95110.16
2022-07-29T23:12:45.628Z,95122.06
2022-07-29T23:15:48.744Z,95124.56
2022-07-29T23:18:52.752Z,95117.19
2022-07-29T23:21:57.350Z,95109.78
2022-07-29T23:25:00.482Z,95115.13
2022-07-29T23:28:03.678Z,95116.09
2022-07-29T23:31:06.836Z,95120.63
2022-07-29T23:34:10.026Z,95113.47
2022-07-29T23:37:14.483Z,95123.19
2022-07-29T23:40:17.585Z,95120.06
2022-07-29T23:43:20.659Z,95122.88
2022-07-29T23:46:24.190Z,95122.94
2022-07-29T23:49:27.414Z,95119.84
2022-07-29T23:52:32.037Z,95123.41
2022-07-29T23:55:37.031Z,95117.38
2022-07-29T23:58:42.012Z,95116.84
